sensor_id;sensor_type;location;lat;lon;timestamp;P1;durP1;ratioP1;P2;durP2;ratioP2
44222;SDS011;29895;48.804;9.386;2023-11-19T00:00:35;7.35;;;3.75;;
44222;SDS011;29895;48.804;9.386;2023-11-19T00:03:01;7.85;;;4.32;;
44222;SDS011;29895;48.804;9.386;2023-11-19T00:05:27;6.63;;;4.40;;
44222;SDS011;29895;48.804;9.386;2023-11-19T00:07:53;8.20;;;4.00;;
44222;SDS011;29895;48.804;9.386;2023-11-19T00:10:19;5.53;;;3.38;;
44222;SDS011;29895;48.804;9.386;2023-11-19T00:12:46;6.78;;;3.72;;
44222;SDS011;29895;48.804;9.386;2023-11-19T00:15:13;5.57;;;3.15;;
44222;SDS011;29895;48.804;9.386;2023-11-19T00:17:42;6.97;;;3.30;;
44222;SDS011;29895;48.804;9.386;2023-11-19T00:20:12;5.10;;;2.67;;
44222;SDS011;29895;48.804;9.386;2023-11-19T00:22:43;6.38;;;3.22;;
44222;SDS011;29895;48.804;9.386;2023-11-19T00:25:13;5.25;;;3.13;;
44222;SDS011;29895;48.804;9.386;2023-11-19T00:27:39;8.07;;;3.42;;
44222;SDS011;29895;48.804;9.386;2023-11-19T00:30:05;8.75;;;4.78;;
44222;SDS011;29895;48.804;9.386;2023-11-19T00:32:34;11.10;;;4.57;;
44222;SDS011;29895;48.804;9.386;2023-11-19T00:35:01;11.93;;;4.50;;
44222;SDS011;29895;48.804;9.386;2023-11-19T00:37:27;6.55;;;3.45;;
44222;SDS011;29895;48.804;9.386;2023-11-19T00:39:53;6.63;;;2.90;;
44222;SDS011;29895;48.804;9.386;2023-11-19T00:42:21;5.63;;;3.08;;
44222;SDS011;29895;48.804;9.386;2023-11-19T00:44:47;4.57;;;2.80;;
44222;SDS011;29895;48.804;9.386;2023-11-19T00:47:12;5.88;;;2.85;;
44222;SDS011;29895;48.804;9.386;2023-11-19T00:49:38;6.35;;;2.95;;
44222;SDS011;29895;48.804;9.386;2023-11-19T00:52:04;12.07;;;4.50;;
44222;SDS011;29895;48.804;9.386;2023-11-19T00:54:31;7.47;;;3.03;;
44222;SDS011;29895;48.804;9.386;2023-11-19T00:56:57;3.58;;;2.38;;
44222;SDS011;29895;48.804;9.386;2023-11-19T00:59:22;10.15;;;2.85;;
44222;SDS011;29895;48.804;9.386;2023-11-19T01:01:48;2.78;;;1.90;;
44222;SDS011;29895;48.804;9.386;2023-11-19T01:04:16;4.82;;;2.25;;
44222;SDS011;29895;48.804;9.386;2023-11-19T01:06:41;3.55;;;2.17;;
44222;SDS011;29895;48.804;9.386;2023-11-19T01:09:07;3.53;;;2.10;;
44222;SDS011;29895;48.804;9.386;2023-11-19T01:11:34;3.55;;;1.92;;
44222;SDS011;29895;48.804;9.386;2023-11-19T01:13:59;4.28;;;2.13;;
44222;SDS011;29895;48.804;9.386;2023-11-19T01:16:25;3.33;;;2.15;;
44222;SDS011;29895;48.804;9.386;2023-11-19T01:18:51;5.18;;;2.17;;
44222;SDS011;29895;48.804;9.386;2023-11-19T01:21:17;2.63;;;2.05;;
44222;SDS011;29895;48.804;9.386;2023-11-19T01:23:43;5.15;;;2.65;;
44222;SDS011;29895;48.804;9.386;2023-11-19T01:26:09;4.75;;;2.60;;
44222;SDS011;29895;48.804;9.386;2023-11-19T01:28:35;4.15;;;2.58;;
44222;SDS011;29895;48.804;9.386;2023-11-19T01:31:01;3.17;;;2.40;;
44222;SDS011;29895;48.804;9.386;2023-11-19T01:33:28;3.88;;;2.25;;
44222;SDS011;29895;48.804;9.386;2023-11-19T01:35:54;4.10;;;2.65;;
44222;SDS011;29895;48.804;9.386;2023-11-19T01:38:21;2.92;;;2.63;;
44222;SDS011;29895;48.804;9.386;2023-11-19T01:40:46;3.90;;;2.30;;
44222;SDS011;29895;48.804;9.386;2023-11-19T01:43:12;3.35;;;2.35;;
44222;SDS011;29895;48.804;9.386;2023-11-19T01:45:55;4.13;;;2.40;;
44222;SDS011;29895;48.804;9.386;2023-11-19T01:48:21;5.15;;;2.40;;
44222;SDS011;29895;48.804;9.386;2023-11-19T01:50:47;6.00;;;3.55;;
44222;SDS011;29895;48.804;9.386;2023-11-19T01:53:13;4.25;;;2.42;;
44222;SDS011;29895;48.804;9.386;2023-11-19T01:55:39;3.70;;;2.28;;
44222;SDS011;29895;48.804;9.386;2023-11-19T01:58:05;5.20;;;2.50;;
44222;SDS011;29895;48.804;9.386;2023-11-19T02:00:32;4.97;;;2.45;;
44222;SDS011;29895;48.804;9.386;2023-11-19T02:02:58;4.15;;;2.60;;
44222;SDS011;29895;48.804;9.386;2023-11-19T02:05:24;3.90;;;1.85;;
44222;SDS011;29895;48.804;9.386;2023-11-19T02:07:50;2.63;;;1.98;;
44222;SDS011;29895;48.804;9.386;2023-11-19T02:10:16;10.27;;;2.65;;
44222;SDS011;29895;48.804;9.386;2023-11-19T02:12:44;3.83;;;3.03;;
44222;SDS011;29895;48.804;9.386;2023-11-19T02:15:10;4.82;;;2.90;;
44222;SDS011;29895;48.804;9.386;2023-11-19T02:17:36;7.95;;;2.95;;
44222;SDS011;29895;48.804;9.386;2023-11-19T02:20:03;4.85;;;2.70;;
44222;SDS011;29895;48.804;9.386;2023-11-19T02:22:34;4.35;;;3.00;;
44222;SDS011;29895;48.804;9.386;2023-11-19T02:25:01;3.90;;;2.65;;
44222;SDS011;29895;48.804;9.386;2023-11-19T02:30:04;5.35;;;2.80;;
44222;SDS011;29895;48.804;9.386;2023-11-19T02:32:33;4.40;;;2.80;;
44222;SDS011;29895;48.804;9.386;2023-11-19T02:35:01;4.43;;;2.88;;
44222;SDS011;29895;48.804;9.386;2023-11-19T02:37:26;8.35;;;2.90;;
44222;SDS011;29895;48.804;9.386;2023-11-19T02:39:53;4.38;;;3.25;;
44222;SDS011;29895;48.804;9.386;2023-11-19T02:42:19;6.22;;;2.95;;
44222;SDS011;29895;48.804;9.386;2023-11-19T02:44:44;5.97;;;3.28;;
44222;SDS011;29895;48.804;9.386;2023-11-19T02:47:11;4.50;;;3.03;;
44222;SDS011;29895;48.804;9.386;2023-11-19T02:49:36;5.63;;;3.22;;
44222;SDS011;29895;48.804;9.386;2023-11-19T02:52:02;5.97;;;3.75;;
44222;SDS011;29895;48.804;9.386;2023-11-19T02:54:30;6.07;;;3.40;;
44222;SDS011;29895;48.804;9.386;2023-11-19T02:56:59;5.20;;;3.45;;
44222;SDS011;29895;48.804;9.386;2023-11-19T02:59:27;6.72;;;3.53;;
44222;SDS011;29895;48.804;9.386;2023-11-19T03:01:53;4.55;;;3.00;;
44222;SDS011;29895;48.804;9.386;2023-11-19T03:04:20;5.25;;;3.47;;
44222;SDS011;29895;48.804;9.386;2023-11-19T03:06:46;5.32;;;3.05;;
44222;SDS011;29895;48.804;9.386;2023-11-19T03:09:12;5.03;;;3.00;;
44222;SDS011;29895;48.804;9.386;2023-11-19T03:11:37;5.18;;;3.47;;
44222;SDS011;29895;48.804;9.386;2023-11-19T03:14:03;5.65;;;3.30;;
44222;SDS011;29895;48.804;9.386;2023-11-19T03:16:29;6.50;;;3.35;;
44222;SDS011;29895;48.804;9.386;2023-11-19T03:18:55;6.10;;;3.13;;
44222;SDS011;29895;48.804;9.386;2023-11-19T03:21:30;4.28;;;3.00;;
44222;SDS011;29895;48.804;9.386;2023-11-19T03:24:00;5.88;;;3.15;;
44222;SDS011;29895;48.804;9.386;2023-11-19T03:26:26;5.13;;;2.83;;
44222;SDS011;29895;48.804;9.386;2023-11-19T03:28:52;8.80;;;3.15;;
44222;SDS011;29895;48.804;9.386;2023-11-19T03:31:19;5.68;;;3.42;;
44222;SDS011;29895;48.804;9.386;2023-11-19T03:33:45;5.97;;;2.97;;
44222;SDS011;29895;48.804;9.386;2023-11-19T03:36:11;4.93;;;3.15;;
44222;SDS011;29895;48.804;9.386;2023-11-19T03:38:37;6.38;;;3.65;;
44222;SDS011;29895;48.804;9.386;2023-11-19T03:41:10;5.30;;;2.90;;
44222;SDS011;29895;48.804;9.386;2023-11-19T03:43:39;4.55;;;3.22;;
44222;SDS011;29895;48.804;9.386;2023-11-19T03:46:26;4.45;;;3.15;;
44222;SDS011;29895;48.804;9.386;2023-11-19T03:48:52;5.20;;;2.88;;
44222;SDS011;29895;48.804;9.386;2023-11-19T03:51:18;5.13;;;2.60;;
44222;SDS011;29895;48.804;9.386;2023-11-19T03:53:46;5.03;;;2.78;;
44222;SDS011;29895;48.804;9.386;2023-11-19T03:56:12;5.43;;;3.38;;
44222;SDS011;29895;48.804;9.386;2023-11-19T03:58:38;4.70;;;3.10;;
44222;SDS011;29895;48.804;9.386;2023-11-19T04:01:04;5.80;;;3.15;;
44222;SDS011;29895;48.804;9.386;2023-11-19T04:03:31;4.82;;;2.78;;
44222;SDS011;29895;48.804;9.386;2023-11-19T04:05:56;4.32;;;2.70;;
44222;SDS011;29895;48.804;9.386;2023-11-19T04:08:22;3.88;;;2.38;;
44222;SDS011;29895;48.804;9.386;2023-11-19T04:10:48;3.90;;;2.35;;
44222;SDS011;29895;48.804;9.386;2023-11-19T04:13:14;6.22;;;2.40;;
44222;SDS011;29895;48.804;9.386;2023-11-19T04:15:39;3.45;;;2.00;;
44222;SDS011;29895;48.804;9.386;2023-11-19T04:18:05;5.03;;;2.20;;
44222;SDS011;29895;48.804;9.386;2023-11-19T04:20:31;11.45;;;2.33;;
44222;SDS011;29895;48.804;9.386;2023-11-19T04:22:56;5.55;;;2.58;;
44222;SDS011;29895;48.804;9.386;2023-11-19T04:25:22;6.22;;;2.45;;
44222;SDS011;29895;48.804;9.386;2023-11-19T04:27:51;4.13;;;2.22;;
44222;SDS011;29895;48.804;9.386;2023-11-19T04:30:17;4.22;;;2.10;;
44222;SDS011;29895;48.804;9.386;2023-11-19T04:32:43;4.82;;;2.50;;
44222;SDS011;29895;48.804;9.386;2023-11-19T04:35:09;5.68;;;3.17;;
44222;SDS011;29895;48.804;9.386;2023-11-19T04:37:35;3.42;;;2.70;;
44222;SDS011;29895;48.804;9.386;2023-11-19T04:40:00;5.88;;;3.15;;
44222;SDS011;29895;48.804;9.386;2023-11-19T04:42:26;6.88;;;2.78;;
44222;SDS011;29895;48.804;9.386;2023-11-19T04:44:52;6.20;;;3.22;;
44222;SDS011;29895;48.804;9.386;2023-11-19T04:47:17;6.50;;;2.35;;
44222;SDS011;29895;48.804;9.386;2023-11-19T04:49:43;2.90;;;1.85;;
44222;SDS011;29895;48.804;9.386;2023-11-19T04:52:09;2.17;;;1.38;;
44222;SDS011;29895;48.804;9.386;2023-11-19T04:54:34;0.93;;;0.77;;
44222;SDS011;29895;48.804;9.386;2023-11-19T04:57:00;0.80;;;0.40;;
44222;SDS011;29895;48.804;9.386;2023-11-19T04:59:25;0.20;;;0.20;;
44222;SDS011;29895;48.804;9.386;2023-11-19T05:01:52;0.40;;;0.30;;
44222;SDS011;29895;48.804;9.386;2023-11-19T05:04:18;0.17;;;0.17;;
44222;SDS011;29895;48.804;9.386;2023-11-19T05:06:44;1.65;;;0.10;;
44222;SDS011;29895;48.804;9.386;2023-11-19T05:09:09;0.32;;;0.20;;
44222;SDS011;29895;48.804;9.386;2023-11-19T05:11:38;0.28;;;0.22;;
44222;SDS011;29895;48.804;9.386;2023-11-19T05:14:04;0.22;;;0.20;;
44222;SDS011;29895;48.804;9.386;2023-11-19T05:16:30;1.13;;;0.20;;
44222;SDS011;29895;48.804;9.386;2023-11-19T05:18:56;0.28;;;0.28;;
44222;SDS011;29895;48.804;9.386;2023-11-19T05:21:21;0.55;;;0.22;;
44222;SDS011;29895;48.804;9.386;2023-11-19T05:23:47;0.68;;;0.32;;
44222;SDS011;29895;48.804;9.386;2023-11-19T05:26:19;0.80;;;0.25;;
44222;SDS011;29895;48.804;9.386;2023-11-19T05:28:46;0.73;;;0.20;;
44222;SDS011;29895;48.804;9.386;2023-11-19T05:31:12;0.10;;;0.10;;
44222;SDS011;29895;48.804;9.386;2023-11-19T05:33:40;0.20;;;0.10;;
44222;SDS011;29895;48.804;9.386;2023-11-19T05:36:06;0.20;;;0.17;;
44222;SDS011;29895;48.804;9.386;2023-11-19T05:38:33;0.73;;;0.20;;
44222;SDS011;29895;48.804;9.386;2023-11-19T05:40:59;2.80;;;0.13;;
44222;SDS011;29895;48.804;9.386;2023-11-19T05:43:25;0.28;;;0.20;;
44222;SDS011;29895;48.804;9.386;2023-11-19T05:45:51;2.38;;;0.20;;
44222;SDS011;29895;48.804;9.386;2023-11-19T05:48:16;0.22;;;0.20;;
44222;SDS011;29895;48.804;9.386;2023-11-19T05:50:42;4.25;;;0.20;;
44222;SDS011;29895;48.804;9.386;2023-11-19T05:53:09;1.27;;;0.20;;
44222;SDS011;29895;48.804;9.386;2023-11-19T05:55:36;4.65;;;0.40;;
44222;SDS011;29895;48.804;9.386;2023-11-19T05:58:10;1.02;;;0.38;;
44222;SDS011;29895;48.804;9.386;2023-11-19T06:00:37;0.80;;;0.10;;
44222;SDS011;29895;48.804;9.386;2023-11-19T06:03:04;0.20;;;0.20;;
44222;SDS011;29895;48.804;9.386;2023-11-19T06:05:29;0.70;;;0.10;;
44222;SDS011;29895;48.804;9.386;2023-11-19T06:07:55;0.45;;;0.20;;
44222;SDS011;29895;48.804;9.386;2023-11-19T06:10:22;0.75;;;0.20;;
44222;SDS011;29895;48.804;9.386;2023-11-19T06:12:54;1.42;;;0.30;;
44222;SDS011;29895;48.804;9.386;2023-11-19T06:15:22;0.10;;;0.10;;
44222;SDS011;29895;48.804;9.386;2023-11-19T06:17:47;0.20;;;0.13;;
44222;SDS011;29895;48.804;9.386;2023-11-19T06:20:13;0.20;;;0.20;;
44222;SDS011;29895;48.804;9.386;2023-11-19T06:22:39;0.32;;;0.15;;
44222;SDS011;29895;48.804;9.386;2023-11-19T06:25:07;0.57;;;0.43;;
44222;SDS011;29895;48.804;9.386;2023-11-19T06:27:33;0.45;;;0.20;;
44222;SDS011;29895;48.804;9.386;2023-11-19T06:29:59;0.20;;;0.20;;
44222;SDS011;29895;48.804;9.386;2023-11-19T06:32:25;0.30;;;0.20;;
44222;SDS011;29895;48.804;9.386;2023-11-19T06:34:51;0.20;;;0.20;;
44222;SDS011;29895;48.804;9.386;2023-11-19T06:37:17;0.70;;;0.20;;
44222;SDS011;29895;48.804;9.386;2023-11-19T06:39:42;0.55;;;0.20;;
44222;SDS011;29895;48.804;9.386;2023-11-19T06:42:08;1.25;;;0.30;;
44222;SDS011;29895;48.804;9.386;2023-11-19T06:44:33;1.48;;;0.65;;
44222;SDS011;29895;48.804;9.386;2023-11-19T06:46:59;1.30;;;0.20;;
44222;SDS011;29895;48.804;9.386;2023-11-19T06:49:25;0.77;;;0.20;;
44222;SDS011;29895;48.804;9.386;2023-11-19T06:51:50;0.30;;;0.20;;
44222;SDS011;29895;48.804;9.386;2023-11-19T06:54:16;1.02;;;0.68;;
44222;SDS011;29895;48.804;9.386;2023-11-19T06:56:42;0.65;;;0.38;;
44222;SDS011;29895;48.804;9.386;2023-11-19T06:59:08;0.28;;;0.22;;
44222;SDS011;29895;48.804;9.386;2023-11-19T07:01:36;0.40;;;0.30;;
44222;SDS011;29895;48.804;9.386;2023-11-19T07:04:02;1.35;;;0.30;;
44222;SDS011;29895;48.804;9.386;2023-11-19T07:06:34;1.05;;;0.30;;
44222;SDS011;29895;48.804;9.386;2023-11-19T07:09:01;0.20;;;0.20;;
44222;SDS011;29895;48.804;9.386;2023-11-19T07:11:34;0.20;;;0.10;;
44222;SDS011;29895;48.804;9.386;2023-11-19T07:14:04;0.95;;;0.40;;
44222;SDS011;29895;48.804;9.386;2023-11-19T07:16:31;0.55;;;0.20;;
44222;SDS011;29895;48.804;9.386;2023-11-19T07:18:59;0.30;;;0.20;;
44222;SDS011;29895;48.804;9.386;2023-11-19T07:21:28;0.40;;;0.20;;
44222;SDS011;29895;48.804;9.386;2023-11-19T07:23:54;0.40;;;0.30;;
44222;SDS011;29895;48.804;9.386;2023-11-19T07:26:20;0.30;;;0.30;;
44222;SDS011;29895;48.804;9.386;2023-11-19T07:28:46;0.13;;;0.10;;
44222;SDS011;29895;48.804;9.386;2023-11-19T07:31:12;0.20;;;0.20;;
44222;SDS011;29895;48.804;9.386;2023-11-19T07:33:39;0.90;;;0.10;;
44222;SDS011;29895;48.804;9.386;2023-11-19T07:36:05;2.80;;;0.47;;
44222;SDS011;29895;48.804;9.386;2023-11-19T07:38:31;0.73;;;0.47;;
44222;SDS011;29895;48.804;9.386;2023-11-19T07:40:56;0.40;;;0.30;;
44222;SDS011;29895;48.804;9.386;2023-11-19T07:43:22;0.57;;;0.20;;
44222;SDS011;29895;48.804;9.386;2023-11-19T07:45:48;0.55;;;0.10;;
44222;SDS011;29895;48.804;9.386;2023-11-19T07:48:13;1.48;;;0.20;;
44222;SDS011;29895;48.804;9.386;2023-11-19T07:50:40;0.50;;;0.20;;
44222;SDS011;29895;48.804;9.386;2023-11-19T07:53:06;0.50;;;0.40;;
44222;SDS011;29895;48.804;9.386;2023-11-19T07:55:33;0.17;;;0.17;;
44222;SDS011;29895;48.804;9.386;2023-11-19T07:57:58;0.30;;;0.30;;
44222;SDS011;29895;48.804;9.386;2023-11-19T08:00:24;0.52;;;0.30;;
44222;SDS011;29895;48.804;9.386;2023-11-19T08:02:50;1.88;;;0.38;;
44222;SDS011;29895;48.804;9.386;2023-11-19T08:05:15;1.05;;;0.28;;
44222;SDS011;29895;48.804;9.386;2023-11-19T08:07:41;0.93;;;0.30;;
44222;SDS011;29895;48.804;9.386;2023-11-19T08:10:06;0.82;;;0.28;;
44222;SDS011;29895;48.804;9.386;2023-11-19T08:12:35;1.27;;;0.32;;
44222;SDS011;29895;48.804;9.386;2023-11-19T08:15:01;1.30;;;0.30;;
44222;SDS011;29895;48.804;9.386;2023-11-19T08:17:27;0.77;;;0.30;;
44222;SDS011;29895;48.804;9.386;2023-11-19T08:19:53;1.98;;;0.50;;
44222;SDS011;29895;48.804;9.386;2023-11-19T08:22:19;1.95;;;0.60;;
44222;SDS011;29895;48.804;9.386;2023-11-19T08:24:44;1.67;;;0.63;;
44222;SDS011;29895;48.804;9.386;2023-11-19T08:27:10;4.05;;;0.55;;
44222;SDS011;29895;48.804;9.386;2023-11-19T08:29:36;1.25;;;0.60;;
44222;SDS011;29895;48.804;9.386;2023-11-19T08:32:01;1.08;;;0.70;;
44222;SDS011;29895;48.804;9.386;2023-11-19T08:34:28;3.97;;;1.38;;
44222;SDS011;29895;48.804;9.386;2023-11-19T08:36:54;1.52;;;0.50;;
44222;SDS011;29895;48.804;9.386;2023-11-19T08:39:20;1.63;;;1.52;;
44222;SDS011;29895;48.804;9.386;2023-11-19T08:41:49;2.67;;;1.45;;
44222;SDS011;29895;48.804;9.386;2023-11-19T08:44:15;9.65;;;7.25;;
44222;SDS011;29895;48.804;9.386;2023-11-19T08:46:50;4.40;;;2.40;;
44222;SDS011;29895;48.804;9.386;2023-11-19T08:49:16;1.40;;;1.10;;
44222;SDS011;29895;48.804;9.386;2023-11-19T08:51:42;2.03;;;1.20;;
44222;SDS011;29895;48.804;9.386;2023-11-19T08:54:09;2.20;;;1.17;;
44222;SDS011;29895;48.804;9.386;2023-11-19T08:56:35;3.03;;;2.22;;
44222;SDS011;29895;48.804;9.386;2023-11-19T08:59:01;2.40;;;2.05;;
44222;SDS011;29895;48.804;9.386;2023-11-19T09:01:27;4.65;;;2.50;;
44222;SDS011;29895;48.804;9.386;2023-11-19T09:03:53;4.05;;;1.67;;
44222;SDS011;29895;48.804;9.386;2023-11-19T09:06:19;1.98;;;1.10;;
44222;SDS011;29895;48.804;9.386;2023-11-19T09:08:44;1.20;;;0.93;;
44222;SDS011;29895;48.804;9.386;2023-11-19T09:11:10;0.98;;;0.50;;
44222;SDS011;29895;48.804;9.386;2023-11-19T09:13:36;1.55;;;0.60;;
44222;SDS011;29895;48.804;9.386;2023-11-19T09:16:02;2.05;;;0.63;;
44222;SDS011;29895;48.804;9.386;2023-11-19T09:18:30;1.88;;;0.43;;
44222;SDS011;29895;48.804;9.386;2023-11-19T09:20:57;1.33;;;0.98;;
44222;SDS011;29895;48.804;9.386;2023-11-19T09:23:23;1.90;;;0.60;;
44222;SDS011;29895;48.804;9.386;2023-11-19T09:25:54;1.23;;;0.40;;
44222;SDS011;29895;48.804;9.386;2023-11-19T09:28:20;0.68;;;0.28;;
44222;SDS011;29895;48.804;9.386;2023-11-19T09:30:45;2.08;;;0.63;;
44222;SDS011;29895;48.804;9.386;2023-11-19T09:33:11;0.82;;;0.52;;
44222;SDS011;29895;48.804;9.386;2023-11-19T09:35:37;2.22;;;0.60;;
44222;SDS011;29895;48.804;9.386;2023-11-19T09:38:02;0.70;;;0.30;;
44222;SDS011;29895;48.804;9.386;2023-11-19T09:40:30;0.35;;;0.22;;
44222;SDS011;29895;48.804;9.386;2023-11-19T09:42:56;0.88;;;0.60;;
44222;SDS011;29895;48.804;9.386;2023-11-19T09:45:22;5.45;;;0.70;;
44222;SDS011;29895;48.804;9.386;2023-11-19T09:47:52;1.23;;;0.32;;
44222;SDS011;29895;48.804;9.386;2023-11-19T09:50:20;0.32;;;0.30;;
44222;SDS011;29895;48.804;9.386;2023-11-19T09:52:46;0.47;;;0.35;;
44222;SDS011;29895;48.804;9.386;2023-11-19T09:55:12;1.63;;;0.60;;
44222;SDS011;29895;48.804;9.386;2023-11-19T09:57:39;1.88;;;0.55;;
44222;SDS011;29895;48.804;9.386;2023-11-19T10:00:07;1.60;;;0.68;;
44222;SDS011;29895;48.804;9.386;2023-11-19T10:02:35;1.10;;;0.70;;
44222;SDS011;29895;48.804;9.386;2023-11-19T10:05:04;0.50;;;0.30;;
44222;SDS011;29895;48.804;9.386;2023-11-19T10:07:31;0.85;;;0.40;;
44222;SDS011;29895;48.804;9.386;2023-11-19T10:10:00;0.80;;;0.47;;
44222;SDS011;29895;48.804;9.386;2023-11-19T10:12:29;1.52;;;0.30;;
44222;SDS011;29895;48.804;9.386;2023-11-19T10:14:58;0.82;;;0.60;;
44222;SDS011;29895;48.804;9.386;2023-11-19T10:17:42;1.92;;;0.52;;
44222;SDS011;29895;48.804;9.386;2023-11-19T10:20:08;1.75;;;0.70;;
44222;SDS011;29895;48.804;9.386;2023-11-19T10:22:36;1.83;;;0.70;;
44222;SDS011;29895;48.804;9.386;2023-11-19T10:25:03;1.35;;;0.60;;
44222;SDS011;29895;48.804;9.386;2023-11-19T10:27:29;1.75;;;0.90;;
44222;SDS011;29895;48.804;9.386;2023-11-19T10:29:57;0.70;;;0.40;;
44222;SDS011;29895;48.804;9.386;2023-11-19T10:32:25;1.45;;;0.93;;
44222;SDS011;29895;48.804;9.386;2023-11-19T10:34:50;3.35;;;1.17;;
44222;SDS011;29895;48.804;9.386;2023-11-19T10:37:28;2.47;;;1.10;;
44222;SDS011;29895;48.804;9.386;2023-11-19T10:39:57;1.98;;;0.68;;
44222;SDS011;29895;48.804;9.386;2023-11-19T10:42:23;6.10;;;2.50;;
44222;SDS011;29895;48.804;9.386;2023-11-19T10:44:49;3.42;;;1.40;;
44222;SDS011;29895;48.804;9.386;2023-11-19T10:47:15;1.02;;;0.80;;
44222;SDS011;29895;48.804;9.386;2023-11-19T10:49:44;4.55;;;1.80;;
44222;SDS011;29895;48.804;9.386;2023-11-19T10:52:11;2.70;;;1.30;;
44222;SDS011;29895;48.804;9.386;2023-11-19T10:54:41;2.67;;;1.50;;
44222;SDS011;29895;48.804;9.386;2023-11-19T10:57:09;3.13;;;1.55;;
44222;SDS011;29895;48.804;9.386;2023-11-19T10:59:40;1.25;;;0.80;;
44222;SDS011;29895;48.804;9.386;2023-11-19T11:02:09;1.92;;;1.08;;
44222;SDS011;29895;48.804;9.386;2023-11-19T11:04:39;3.00;;;1.27;;
44222;SDS011;29895;48.804;9.386;2023-11-19T11:07:07;1.98;;;0.60;;
44222;SDS011;29895;48.804;9.386;2023-11-19T11:09:33;1.50;;;0.50;;
44222;SDS011;29895;48.804;9.386;2023-11-19T11:12:00;0.77;;;0.50;;
44222;SDS011;29895;48.804;9.386;2023-11-19T11:14:26;1.52;;;0.73;;
44222;SDS011;29895;48.804;9.386;2023-11-19T11:16:53;2.08;;;0.63;;
44222;SDS011;29895;48.804;9.386;2023-11-19T11:19:20;2.97;;;0.90;;
44222;SDS011;29895;48.804;9.386;2023-11-19T11:21:47;4.72;;;0.98;;
44222;SDS011;29895;48.804;9.386;2023-11-19T11:30:06;2.33;;;0.95;;
44222;SDS011;29895;48.804;9.386;2023-11-19T11:33:05;3.05;;;1.27;;
44222;SDS011;29895;48.804;9.386;2023-11-19T11:38:46;2.15;;;1.00;;
44222;SDS011;29895;48.804;9.386;2023-11-19T11:49:08;2.28;;;0.63;;
44222;SDS011;29895;48.804;9.386;2023-11-19T11:54:10;2.85;;;0.80;;
44222;SDS011;29895;48.804;9.386;2023-11-19T11:56:37;2.45;;;0.60;;
44222;SDS011;29895;48.804;9.386;2023-11-19T11:59:03;4.22;;;0.95;;
44222;SDS011;29895;48.804;9.386;2023-11-19T12:01:59;3.92;;;1.08;;
44222;SDS011;29895;48.804;9.386;2023-11-19T12:04:28;1.90;;;0.70;;
44222;SDS011;29895;48.804;9.386;2023-11-19T12:07:07;1.98;;;0.50;;
44222;SDS011;29895;48.804;9.386;2023-11-19T12:09:41;4.32;;;0.80;;
44222;SDS011;29895;48.804;9.386;2023-11-19T12:12:19;3.72;;;0.70;;
44222;SDS011;29895;48.804;9.386;2023-11-19T12:15:09;1.52;;;0.60;;
44222;SDS011;29895;48.804;9.386;2023-11-19T12:17:36;3.13;;;0.52;;
44222;SDS011;29895;48.804;9.386;2023-11-19T12:20:05;4.10;;;0.75;;
44222;SDS011;29895;48.804;9.386;2023-11-19T12:22:35;3.15;;;0.65;;
44222;SDS011;29895;48.804;9.386;2023-11-19T12:25:05;4.20;;;1.23;;
44222;SDS011;29895;48.804;9.386;2023-11-19T12:27:32;2.45;;;0.70;;
44222;SDS011;29895;48.804;9.386;2023-11-19T12:29:59;2.97;;;1.73;;
44222;SDS011;29895;48.804;9.386;2023-11-19T12:32:25;3.30;;;1.20;;
44222;SDS011;29895;48.804;9.386;2023-11-19T12:34:50;5.43;;;0.90;;
44222;SDS011;29895;48.804;9.386;2023-11-19T12:37:16;2.58;;;0.70;;
44222;SDS011;29895;48.804;9.386;2023-11-19T12:39:42;2.75;;;0.60;;
44222;SDS011;29895;48.804;9.386;2023-11-19T12:42:08;2.53;;;0.63;;
44222;SDS011;29895;48.804;9.386;2023-11-19T12:44:34;3.17;;;1.05;;
44222;SDS011;29895;48.804;9.386;2023-11-19T12:47:03;7.85;;;0.82;;
44222;SDS011;29895;48.804;9.386;2023-11-19T12:49:31;4.78;;;1.10;;
44222;SDS011;29895;48.804;9.386;2023-11-19T12:51:58;1.65;;;0.90;;
44222;SDS011;29895;48.804;9.386;2023-11-19T12:54:36;2.83;;;1.20;;
44222;SDS011;29895;48.804;9.386;2023-11-19T12:57:02;3.60;;;0.90;;
44222;SDS011;29895;48.804;9.386;2023-11-19T12:59:30;4.85;;;1.10;;
44222;SDS011;29895;48.804;9.386;2023-11-19T13:04:31;1.10;;;0.50;;
44222;SDS011;29895;48.804;9.386;2023-11-19T13:06:57;2.40;;;0.60;;
44222;SDS011;29895;48.804;9.386;2023-11-19T13:09:24;1.58;;;0.70;;
44222;SDS011;29895;48.804;9.386;2023-11-19T13:11:50;3.90;;;0.70;;
44222;SDS011;29895;48.804;9.386;2023-11-19T13:14:17;1.83;;;0.52;;
44222;SDS011;29895;48.804;9.386;2023-11-19T13:16:44;5.85;;;1.33;;
44222;SDS011;29895;48.804;9.386;2023-11-19T13:19:13;1.77;;;0.60;;
44222;SDS011;29895;48.804;9.386;2023-11-19T13:21:39;2.92;;;0.98;;
44222;SDS011;29895;48.804;9.386;2023-11-19T13:24:06;3.25;;;0.90;;
44222;SDS011;29895;48.804;9.386;2023-11-19T13:26:31;2.92;;;0.47;;
44222;SDS011;29895;48.804;9.386;2023-11-19T13:28:57;4.05;;;0.70;;
44222;SDS011;29895;48.804;9.386;2023-11-19T13:31:23;2.13;;;0.70;;
44222;SDS011;29895;48.804;9.386;2023-11-19T13:33:48;1.15;;;0.55;;
44222;SDS011;29895;48.804;9.386;2023-11-19T13:36:17;1.63;;;0.50;;
44222;SDS011;29895;48.804;9.386;2023-11-19T13:38:42;3.78;;;0.43;;
44222;SDS011;29895;48.804;9.386;2023-11-19T13:41:11;2.13;;;0.50;;
44222;SDS011;29895;48.804;9.386;2023-11-19T13:43:38;4.78;;;0.88;;
44222;SDS011;29895;48.804;9.386;2023-11-19T13:46:05;1.70;;;0.70;;
44222;SDS011;29895;48.804;9.386;2023-11-19T13:48:31;1.58;;;0.60;;
44222;SDS011;29895;48.804;9.386;2023-11-19T13:50:57;1.77;;;0.50;;
44222;SDS011;29895;48.804;9.386;2023-11-19T13:53:23;2.72;;;0.52;;
44222;SDS011;29895;48.804;9.386;2023-11-19T13:55:49;1.23;;;0.40;;
44222;SDS011;29895;48.804;9.386;2023-11-19T13:58:15;1.40;;;0.50;;
44222;SDS011;29895;48.804;9.386;2023-11-19T14:00:41;3.63;;;0.70;;
44222;SDS011;29895;48.804;9.386;2023-11-19T14:03:08;2.33;;;0.90;;
44222;SDS011;29895;48.804;9.386;2023-11-19T14:05:36;3.10;;;0.65;;
44222;SDS011;29895;48.804;9.386;2023-11-19T14:08:02;3.33;;;0.88;;
44222;SDS011;29895;48.804;9.386;2023-11-19T14:10:28;2.13;;;0.60;;
44222;SDS011;29895;48.804;9.386;2023-11-19T14:12:54;3.38;;;0.63;;
44222;SDS011;29895;48.804;9.386;2023-11-19T14:15:19;2.17;;;0.60;;
44222;SDS011;29895;48.804;9.386;2023-11-19T14:17:45;2.78;;;0.70;;
44222;SDS011;29895;48.804;9.386;2023-11-19T14:20:11;2.22;;;0.40;;
44222;SDS011;29895;48.804;9.386;2023-11-19T14:22:40;3.60;;;0.68;;
44222;SDS011;29895;48.804;9.386;2023-11-19T14:25:08;3.10;;;0.60;;
44222;SDS011;29895;48.804;9.386;2023-11-19T14:27:37;1.92;;;0.52;;
44222;SDS011;29895;48.804;9.386;2023-11-19T14:30:05;2.80;;;0.80;;
44222;SDS011;29895;48.804;9.386;2023-11-19T14:32:31;2.20;;;0.70;;
44222;SDS011;29895;48.804;9.386;2023-11-19T14:34:57;3.03;;;0.88;;
44222;SDS011;29895;48.804;9.386;2023-11-19T14:37:23;3.22;;;0.77;;
44222;SDS011;29895;48.804;9.386;2023-11-19T14:39:48;1.02;;;0.47;;
44222;SDS011;29895;48.804;9.386;2023-11-19T14:42:15;3.13;;;0.50;;
44222;SDS011;29895;48.804;9.386;2023-11-19T14:44:42;3.85;;;0.68;;
44222;SDS011;29895;48.804;9.386;2023-11-19T14:47:07;1.95;;;0.60;;
44222;SDS011;29895;48.804;9.386;2023-11-19T14:49:36;4.15;;;0.80;;
44222;SDS011;29895;48.804;9.386;2023-11-19T14:52:02;2.58;;;0.82;;
44222;SDS011;29895;48.804;9.386;2023-11-19T14:54:29;1.38;;;0.60;;
44222;SDS011;29895;48.804;9.386;2023-11-19T14:56:55;4.22;;;0.60;;
44222;SDS011;29895;48.804;9.386;2023-11-19T14:59:21;3.17;;;0.60;;
44222;SDS011;29895;48.804;9.386;2023-11-19T15:01:47;2.80;;;0.85;;
44222;SDS011;29895;48.804;9.386;2023-11-19T15:04:13;5.97;;;1.35;;
44222;SDS011;29895;48.804;9.386;2023-11-19T15:06:38;3.40;;;0.88;;
44222;SDS011;29895;48.804;9.386;2023-11-19T15:09:04;4.63;;;0.80;;
44222;SDS011;29895;48.804;9.386;2023-11-19T15:11:32;2.17;;;0.88;;